createdAt,value
2017-11-19T00:00:04.411Z,92.99
2017-11-19T00:00:30.539Z,92.8
2017-11-19T00:00:56.655Z,92.71
2017-11-19T00:01:22.782Z,92.51
2017-11-19T00:01:48.898Z,93.08
2017-11-19T00:02:15.015Z,92.9
2017-11-19T00:02:41.138Z,92.8
2017-11-19T00:03:07.260Z,92.99
2017-11-19T00:03:33.385Z,93.18
2017-11-19T00:03:59.528Z,92.8
2017-11-19T00:04:25.627Z,92.9
2017-11-19T00:04:51.746Z,93.18
2017-11-19T00:05:17.864Z,92.8
2017-11-19T00:05:43.991Z,92.61
2017-11-19T00:06:10.108Z,93.08
2017-11-19T00:06:36.235Z,92.9
2017-11-19T00:07:02.354Z,92.99
2017-11-19T00:07:28.492Z,93.08
2017-11-19T00:07:54.613Z,92.99
2017-11-19T00:08:20.739Z,93.46
2017-11-19T00:08:46.856Z,93.18
2017-11-19T00:09:12.982Z,93.18
2017-11-19T00:09:39.120Z,93.27
2017-11-19T00:10:05.240Z,93.37
2017-11-19T00:10:31.366Z,93.08
2017-11-19T00:10:57.504Z,93.37
2017-11-19T00:11:23.630Z,93.84
2017-11-19T00:11:49.754Z,93.84
2017-11-19T00:12:15.878Z,94.03
2017-11-19T00:12:41.990Z,94.32
2017-11-19T00:13:08.117Z,94.23
2017-11-19T00:13:34.241Z,94.32
2017-11-19T00:14:00.355Z,94.89
2017-11-19T00:14:26.490Z,95.08
2017-11-19T00:14:52.598Z,94.98
2017-11-19T00:15:18.724Z,94.6
2017-11-19T00:15:44.868Z,94.6
2017-11-19T00:16:10.986Z,94.23
2017-11-19T00:16:37.112Z,94.7
2017-11-19T00:17:03.237Z,94.7
2017-11-19T00:17:29.356Z,94.42
2017-11-19T00:17:55.474Z,94.42
2017-11-19T00:18:21.599Z,94.89
2017-11-19T00:18:47.724Z,94.23
2017-11-19T00:19:13.834Z,94.23
2017-11-19T00:19:39.952Z,94.32
2017-11-19T00:20:06.085Z,93.94
2017-11-19T00:20:32.231Z,94.13
2017-11-19T00:20:58.355Z,93.84
2017-11-19T00:21:24.490Z,93.94
2017-11-19T00:21:50.611Z,94.7
2017-11-19T00:22:16.727Z,94.32
2017-11-19T00:22:42.856Z,94.6
2017-11-19T00:23:08.976Z,94.7
2017-11-19T00:23:35.092Z,94.51
2017-11-19T00:24:01.211Z,94.42
2017-11-19T00:24:27.325Z,94.13
2017-11-19T00:24:53.451Z,94.42
2017-11-19T00:25:19.570Z,94.51
2017-11-19T00:25:45.693Z,94.42
2017-11-19T00:26:11.819Z,94.42
2017-11-19T00:26:37.941Z,94.23
2017-11-19T00:27:04.058Z,93.94
2017-11-19T00:27:30.179Z,93.94
2017-11-19T00:27:56.305Z,93.84
2017-11-19T00:28:22.429Z,93.65
2017-11-19T00:28:48.551Z,93.65
2017-11-19T00:29:14.673Z,93.56
2017-11-19T00:29:40.810Z,93.84
2017-11-19T00:30:06.929Z,93.75
2017-11-19T00:30:33.054Z,93.75
2017-11-19T00:30:59.176Z,93.75
2017-11-19T00:31:25.294Z,93.84
2017-11-19T00:31:51.417Z,93.75
2017-11-19T00:32:17.537Z,93.84
2017-11-19T00:32:43.656Z,93.56
2017-11-19T00:33:09.778Z,93.84
2017-11-19T00:33:35.903Z,93.56
2017-11-19T00:34:02.039Z,93.56
2017-11-19T00:34:28.158Z,93.75
2017-11-19T00:34:54.286Z,93.46
2017-11-19T00:35:20.408Z,93.37
2017-11-19T00:35:46.527Z,93.37
2017-11-19T00:36:12.650Z,93.37
2017-11-19T00:36:38.766Z,93.94
2017-11-19T00:37:04.885Z,93.75
2017-11-19T00:37:31.009Z,93.84
2017-11-19T00:37:57.128Z,93.94
2017-11-19T00:38:23.253Z,93.75
2017-11-19T00:38:49.376Z,93.46
2017-11-19T00:39:15.490Z,93.84
2017-11-19T00:39:41.619Z,93.84
2017-11-19T00:40:07.737Z,93.94
2017-11-19T00:40:33.861Z,93.84
2017-11-19T00:40:59.978Z,93.84
2017-11-19T00:41:26.099Z,93.27
2017-11-19T00:41:52.225Z,93.56
2017-11-19T00:42:18.345Z,93.37
2017-11-19T00:42:44.464Z,93.37
2017-11-19T00:43:10.590Z,93.46
2017-11-19T00:43:36.710Z,93.18
2017-11-19T00:44:02.846Z,93.46
2017-11-19T00:44:28.962Z,93.56
2017-11-19T00:44:55.087Z,93.56
2017-11-19T00:45:21.209Z,93.84
2017-11-19T00:45:47.331Z,93.56
2017-11-19T00:46:13.449Z,93.65
2017-11-19T00:46:39.571Z,93.65
2017-11-19T00:47:05.698Z,93.56
2017-11-19T00:47:31.813Z,93.18
2017-11-19T00:47:57.939Z,93.18
2017-11-19T00:48:24.053Z,93.18
2017-11-19T00:48:50.181Z,93.37
2017-11-19T00:49:16.296Z,93.27
2017-11-19T00:49:42.416Z,93.56
2017-11-19T00:50:08.541Z,93.08
2017-11-19T00:50:34.657Z,93.18
2017-11-19T00:51:00.800Z,92.9
2017-11-19T00:51:26.925Z,93.18
2017-11-19T00:51:53.040Z,92.71
2017-11-19T00:52:19.164Z,92.8
2017-11-19T00:52:45.289Z,93.46
2017-11-19T00:53:11.405Z,93.27
2017-11-19T00:53:37.536Z,93.37
2017-11-19T00:54:03.651Z,93.27
2017-11-19T00:54:29.774Z,93.27
2017-11-19T00:54:55.891Z,93.18
2017-11-19T00:55:22.017Z,93.56
2017-11-19T00:55:48.136Z,93.37
2017-11-19T00:56:14.254Z,93.56
2017-11-19T00:56:40.380Z,93.94
2017-11-19T00:57:06.496Z,94.23
2017-11-19T00:57:32.618Z,94.42
2017-11-19T00:57:58.742Z,94.32
2017-11-19T00:58:24.860Z,94.13
2017-11-19T00:58:50.987Z,94.32
2017-11-19T00:59:17.104Z,94.32
2017-11-19T00:59:43.231Z,93.94
2017-11-19T01:00:09.378Z,93.94
2017-11-19T01:00:35.521Z,93.94
2017-11-19T01:01:01.637Z,94.13
2017-11-19T01:01:27.755Z,93.94
2017-11-19T01:01:53.881Z,93.94
2017-11-19T01:02:19.994Z,94.23
2017-11-19T01:02:46.137Z,94.42
2017-11-19T01:03:12.255Z,93.94
2017-11-19T01:03:38.386Z,93.94
2017-11-19T01:04:04.507Z,94.23
2017-11-19T01:04:30.625Z,94.13
2017-11-19T01:04:56.751Z,94.23
2017-11-19T01:05:22.869Z,94.42
2017-11-19T01:05:49.021Z,94.6
2017-11-19T01:06:15.138Z,94.42
2017-11-19T01:06:41.268Z,94.6
2017-11-19T01:07:07.381Z,94.13
2017-11-19T01:07:33.516Z,94.6
2017-11-19T01:07:59.632Z,94.79
2017-11-19T01:08:25.751Z,94.79
2017-11-19T01:08:51.873Z,94.7
2017-11-19T01:09:18.024Z,94.98
2017-11-19T01:09:44.141Z,95.65
2017-11-19T01:10:10.260Z,95.55
2017-11-19T01:10:36.379Z,95.36
2017-11-19T01:11:02.501Z,95.08
2017-11-19T01:11:28.621Z,94.98
2017-11-19T01:11:54.742Z,95.27
2017-11-19T01:12:20.861Z,94.7
2017-11-19T01:12:46.977Z,94.98
2017-11-19T01:13:13.115Z,95.08
2017-11-19T01:13:39.237Z,95.08
2017-11-19T01:14:05.352Z,94.98
2017-11-19T01:14:31.472Z,94.7
2017-11-19T01:14:57.589Z,94.7
2017-11-19T01:15:23.719Z,94.6
2017-11-19T01:15:49.836Z,94.98
2017-11-19T01:16:15.955Z,95.08
2017-11-19T01:16:42.089Z,94.79
2017-11-19T01:17:08.203Z,94.98
2017-11-19T01:17:34.319Z,94.98
2017-11-19T01:18:00.461Z,94.98
2017-11-19T01:18:26.591Z,94.98
2017-11-19T01:18:52.708Z,95.46
2017-11-19T01:19:18.824Z,95.27
2017-11-19T01:19:44.946Z,95.55
2017-11-19T01:20:11.073Z,95.55
2017-11-19T01:20:37.192Z,95.08
2017-11-19T01:21:03.310Z,94.7
2017-11-19T01:21:29.436Z,94.7
2017-11-19T01:21:55.558Z,94.98
2017-11-19T01:22:21.694Z,94.79
2017-11-19T01:22:47.815Z,95.75
2017-11-19T01:23:13.938Z,94.98
2017-11-19T01:23:40.065Z,95.08
2017-11-19T01:24:06.185Z,94.98
2017-11-19T01:24:32.332Z,94.98
2017-11-19T01:24:58.452Z,95.17
2017-11-19T01:25:24.571Z,94.98
2017-11-19T01:25:50.706Z,94.98
2017-11-19T01:26:16.842Z,94.98
2017-11-19T01:26:42.981Z,94.98
2017-11-19T01:27:09.106Z,94.98
2017-11-19T01:27:35.250Z,94.89
2017-11-19T01:28:01.350Z,94.98
2017-11-19T01:28:27.475Z,95.08
2017-11-19T01:28:53.595Z,95.17
2017-11-19T01:29:19.717Z,94.98
2017-11-19T01:29:45.838Z,95.17
2017-11-19T01:30:11.978Z,94.98
2017-11-19T01:30:38.095Z,94.79
2017-11-19T01:31:04.237Z,94.7
2017-11-19T01:31:30.355Z,95.17
2017-11-19T01:31:56.482Z,95.65
2017-11-19T01:32:22.601Z,95.55
2017-11-19T01:32:48.722Z,95.36
2017-11-19T01:33:14.859Z,94.98
2017-11-19T01:33:40.992Z,94.6
2017-11-19T01:34:07.104Z,94.7
2017-11-19T01:34:33.224Z,94.7
2017-11-19T01:34:59.342Z,94.51
2017-11-19T01:35:25.492Z,94.89
2017-11-19T01:35:51.622Z,94.7
2017-11-19T01:36:17.758Z,94.6
2017-11-19T01:36:43.896Z,94.42
2017-11-19T01:37:10.043Z,94.13
2017-11-19T01:37:36.166Z,93.94
2017-11-19T01:38:02.282Z,94.03
2017-11-19T01:38:28.405Z,93.94
2017-11-19T01:38:54.542Z,94.03
2017-11-19T01:39:20.649Z,94.13
2017-11-19T01:39:46.776Z,93.94
2017-11-19T01:40:12.890Z,94.42
2017-11-19T01:40:39.012Z,94.13
2017-11-19T01:41:05.145Z,94.98
2017-11-19T01:41:31.249Z,94.98
2017-11-19T01:41:57.380Z,95.08
2017-11-19T01:42:23.515Z,95.08
2017-11-19T01:42:49.637Z,94.7
2017-11-19T01:43:15.758Z,94.98
2017-11-19T01:43:41.885Z,94.98
2017-11-19T01:44:08.004Z,94.89
2017-11-19T01:44:34.128Z,94.98
2017-11-19T01:45:00.252Z,94.98
2017-11-19T01:45:26.370Z,94.6
2017-11-19T01:45:52.493Z,94.7
2017-11-19T01:46:18.616Z,94.79
2017-11-19T01:46:44.738Z,94.7
2017-11-19T01:47:10.862Z,94.98
2017-11-19T01:47:36.969Z,94.98
2017-11-19T01:48:03.098Z,94.79
2017-11-19T01:48:29.244Z,94.89
2017-11-19T01:48:55.377Z,94.42
2017-11-19T01:49:21.495Z,94.13
2017-11-19T01:49:47.619Z,94.89
2017-11-19T01:50:13.741Z,94.79
2017-11-19T01:50:39.869Z,94.6
2017-11-19T01:51:06.005Z,94.7
2017-11-19T01:51:32.131Z,94.98
2017-11-19T01:51:58.252Z,94.6
2017-11-19T01:52:24.371Z,94.32
2017-11-19T01:52:50.495Z,94.6
2017-11-19T01:53:16.616Z,94.13
2017-11-19T01:53:42.733Z,94.23
2017-11-19T01:54:08.859Z,93.94
2017-11-19T01:54:34.995Z,93.94
2017-11-19T01:55:01.113Z,94.51
2017-11-19T01:55:27.234Z,94.13
2017-11-19T01:55:53.355Z,93.8
2017-11-19T01:56:19.477Z,93.89
2017-11-19T01:56:45.605Z,94.74
2017-11-19T01:57:11.716Z,94.93
2017-11-19T01:57:37.835Z,94.98
2017-11-19T01:58:03.968Z,95.08
2017-11-19T01:58:30.104Z,95.17
2017-11-19T01:58:56.226Z,94.84
2017-11-19T01:59:22.366Z,94.23
2017-11-19T01:59:48.493Z,94.46
2017-11-19T02:00:14.611Z,94.46
2017-11-19T02:00:40.728Z,94.46
2017-11-19T02:01:06.853Z,94.23
2017-11-19T02:01:32.969Z,94.6
2017-11-19T02:01:59.114Z,94.42
2017-11-19T02:02:25.237Z,94.08
2017-11-19T02:02:51.361Z,93.94
2017-11-19T02:03:17.498Z,94.08
2017-11-19T02:03:43.620Z,94.42
2017-11-19T02:04:09.744Z,94.37
2017-11-19T02:04:35.867Z,94.18
2017-11-19T02:05:02.000Z,94.18
2017-11-19T02:05:28.147Z,94.18
2017-11-19T02:05:54.281Z,94.03
2017-11-19T02:06:20.425Z,94.27
2017-11-19T02:06:46.533Z,94.08
2017-11-19T02:07:12.658Z,93.99
2017-11-19T02:07:38.776Z,94.08
2017-11-19T02:08:04.926Z,93.99
2017-11-19T02:08:31.056Z,93.99
2017-11-19T02:08:57.168Z,93.94
2017-11-19T02:09:23.295Z,94.37
2017-11-19T02:09:49.409Z,93.7
2017-11-19T02:10:15.563Z,93.8
2017-11-19T02:10:41.684Z,94.37
2017-11-19T02:11:07.803Z,94.18
2017-11-19T02:11:33.927Z,94.37
2017-11-19T02:12:00.054Z,94.08
2017-11-19T02:12:26.171Z,94.27
2017-11-19T02:12:52.295Z,94.18
2017-11-19T02:13:18.417Z,94.18
2017-11-19T02:13:44.535Z,94.27
2017-11-19T02:14:10.662Z,93.99
2017-11-19T02:14:36.792Z,94.27
2017-11-19T02:15:02.917Z,94.93
2017-11-19T02:15:29.040Z,94.08
2017-11-19T02:15:55.182Z,94.37
2017-11-19T02:16:21.321Z,93.99
2017-11-19T02:16:47.448Z,93.99
2017-11-19T02:17:13.581Z,94.08
2017-11-19T02:17:39.704Z,94.46
2017-11-19T02:18:05.842Z,94.37
2017-11-19T02:18:31.968Z,93.7
2017-11-19T02:18:58.111Z,93.7
2017-11-19T02:19:24.228Z,93.41
2017-11-19T02:19:50.377Z,93.23
2017-11-19T02:20:16.490Z,93.51
2017-11-19T02:20:42.608Z,93.8
2017-11-19T02:21:08.754Z,93.7
2017-11-19T02:21:34.870Z,94.46
2017-11-19T02:22:00.996Z,93.89
2017-11-19T02:22:27.144Z,93.8
2017-11-19T02:22:53.261Z,93.8
2017-11-19T02:23:19.383Z,93.8
2017-11-19T02:23:45.500Z,93.6
2017-11-19T02:24:11.625Z,93.32
2017-11-19T02:24:37.748Z,93.13
2017-11-19T02:25:03.869Z,93.23
2017-11-19T02:25:29.989Z,93.23
2017-11-19T02:25:56.126Z,93.23
2017-11-19T02:26:22.250Z,93.13
2017-11-19T02:26:48.364Z,93.7
2017-11-19T02:27:14.507Z,93.04
2017-11-19T02:27:40.606Z,93.32
2017-11-19T02:28:06.736Z,93.51
2017-11-19T02:28:32.879Z,93.41
2017-11-19T02:28:59.014Z,93.8
2017-11-19T02:29:25.153Z,93.6
2017-11-19T02:29:51.279Z,93.89
2017-11-19T02:30:17.402Z,94.18
2017-11-19T02:30:43.548Z,93.99
2017-11-19T02:31:09.676Z,93.99
2017-11-19T02:31:35.785Z,93.99
2017-11-19T02:32:01.906Z,93.8
2017-11-19T02:32:28.021Z,93.32
2017-11-19T02:32:54.158Z,93.13
2017-11-19T02:33:20.279Z,93.04
2017-11-19T02:33:46.399Z,93.32
2017-11-19T02:34:12.524Z,93.23
2017-11-19T02:34:38.646Z,93.89
2017-11-19T02:35:04.782Z,93.89
2017-11-19T02:35:30.916Z,94.08
2017-11-19T02:35:57.041Z,93.7
2017-11-19T02:36:23.181Z,93.51
2017-11-19T02:36:49.310Z,93.13
2017-11-19T02:37:15.426Z,93.23
2017-11-19T02:37:41.568Z,92.94
2017-11-19T02:38:07.694Z,92.94
2017-11-19T02:38:33.805Z,93.04
2017-11-19T02:38:59.924Z,93.13
2017-11-19T02:39:26.071Z,93.51
2017-11-19T02:39:52.196Z,93.04
2017-11-19T02:40:18.315Z,92.94
2017-11-19T02:40:44.441Z,93.13
2017-11-19T02:41:10.559Z,93.04
2017-11-19T02:41:36.701Z,92.75
2017-11-19T02:42:02.815Z,92.75
2017-11-19T02:42:28.961Z,92.85
2017-11-19T02:42:55.099Z,92.94
2017-11-19T02:43:21.218Z,92.66
2017-11-19T02:43:47.360Z,92.75
2017-11-19T02:44:13.483Z,92.37
2017-11-19T02:44:39.601Z,93.32
2017-11-19T02:45:05.724Z,92.56
2017-11-19T02:45:31.847Z,92.66
2017-11-19T02:45:57.961Z,93.04
2017-11-19T02:46:24.085Z,92.66
2017-11-19T02:46:50.201Z,92.75
2017-11-19T02:47:16.326Z,92.75
2017-11-19T02:47:42.495Z,92.18
2017-11-19T02:48:08.624Z,93.13
2017-11-19T02:48:34.754Z,92.75
2017-11-19T02:49:00.869Z,92.85
2017-11-19T02:49:26.998Z,92.94
2017-11-19T02:49:53.115Z,93.32
2017-11-19T02:50:19.230Z,93.41
2017-11-19T02:50:45.357Z,92.56
2017-11-19T02:51:11.501Z,92.56
2017-11-19T02:51:37.619Z,92.85
2017-11-19T02:52:03.737Z,92.75
2017-11-19T02:52:29.866Z,92.85
2017-11-19T02:52:55.984Z,92.47
2017-11-19T02:53:22.105Z,92.09
2017-11-19T02:53:48.229Z,92.37
2017-11-19T02:54:14.348Z,92.09
2017-11-19T02:54:40.515Z,92.18
2017-11-19T02:55:06.594Z,92.18
2017-11-19T02:55:32.719Z,91.99
2017-11-19T02:55:58.835Z,92.09
2017-11-19T02:56:24.957Z,91.99
2017-11-19T02:56:51.075Z,91.71
2017-11-19T02:57:17.201Z,91.99
2017-11-19T02:57:43.319Z,92.09
2017-11-19T02:58:09.439Z,91.99
2017-11-19T02:58:35.584Z,91.99
2017-11-19T02:59:01.694Z,92.28
2017-11-19T02:59:27.822Z,91.99
2017-11-19T02:59:53.942Z,92.28
2017-11-19T03:00:20.080Z,92.18
2017-11-19T03:00:46.190Z,92.09
2017-11-19T03:01:12.306Z,91.99
2017-11-19T03:01:38.431Z,91.52
2017-11-19T03:02:04.568Z,91.8
2017-11-19T03:02:30.692Z,91.8
2017-11-19T03:02:56.816Z,92.28
2017-11-19T03:03:22.935Z,91.8
2017-11-19T03:03:49.050Z,91.8
2017-11-19T03:04:15.176Z,91.42
2017-11-19T03:04:41.294Z,91.42
2017-11-19T03:05:07.418Z,91.61
2017-11-19T03:05:33.533Z,91.42
2017-11-19T03:05:59.657Z,91.71
2017-11-19T03:06:25.777Z,91.71
2017-11-19T03:06:51.904Z,91.61
2017-11-19T03:07:18.018Z,91.61
2017-11-19T03:07:44.146Z,91.42
2017-11-19T03:08:10.284Z,91.8
2017-11-19T03:08:36.397Z,91.89
2017-11-19T03:09:02.519Z,91.61
2017-11-19T03:09:28.639Z,91.24
2017-11-19T03:09:54.766Z,91.71
2017-11-19T03:10:20.889Z,91.42
2017-11-19T03:10:47.013Z,91.61
2017-11-19T03:11:13.133Z,91.14
2017-11-19T03:11:39.251Z,91.14
2017-11-19T03:12:05.375Z,91.24
2017-11-19T03:12:31.492Z,91.14
2017-11-19T03:12:57.612Z,90.85
2017-11-19T03:13:23.739Z,91.14
2017-11-19T03:13:49.855Z,91.24
2017-11-19T03:14:15.972Z,91.33
2017-11-19T03:14:42.094Z,91.14
2017-11-19T03:15:08.208Z,91.24
2017-11-19T03:15:34.334Z,90.66
2017-11-19T03:16:00.469Z,91.14
2017-11-19T03:16:26.592Z,90.95
2017-11-19T03:16:52.709Z,91.14
2017-11-19T03:17:18.835Z,91.04
2017-11-19T03:17:44.951Z,91.04
2017-11-19T03:18:11.072Z,91.24
2017-11-19T03:18:37.198Z,91.14
2017-11-19T03:19:03.321Z,91.14
2017-11-19T03:19:29.439Z,91.24
2017-11-19T03:19:55.565Z,91.04
2017-11-19T03:20:21.683Z,90.95
2017-11-19T03:20:47.821Z,91.33
2017-11-19T03:21:13.956Z,91.33
2017-11-19T03:21:40.073Z,91.33
2017-11-19T03:22:06.188Z,91.33
2017-11-19T03:22:32.331Z,91.14
2017-11-19T03:22:58.449Z,91.99
2017-11-19T03:23:24.574Z,91.61
2017-11-19T03:23:50.691Z,91.42
2017-11-19T03:24:16.831Z,91.71
2017-11-19T03:24:42.955Z,91.8
2017-11-19T03:25:09.080Z,91.89
2017-11-19T03:25:35.193Z,91.8
2017-11-19T03:26:01.319Z,91.42
2017-11-19T03:26:27.438Z,91.42
2017-11-19T03:26:53.555Z,91.42
2017-11-19T03:27:19.680Z,91.89
2017-11-19T03:27:45.797Z,91.38
2017-11-19T03:28:11.930Z,91.56
2017-11-19T03:28:38.054Z,91.42
2017-11-19T03:29:04.170Z,91.19
2017-11-19T03:29:30.297Z,91.38
2017-11-19T03:29:56.420Z,91.38
2017-11-19T03:30:22.541Z,91.75
2017-11-19T03:30:48.665Z,91.66
2017-11-19T03:31:14.807Z,91.71
2017-11-19T03:31:40.924Z,91.66
2017-11-19T03:32:07.077Z,91.85
2017-11-19T03:32:33.184Z,91.66
2017-11-19T03:32:59.310Z,91.75
2017-11-19T03:33:25.423Z,91.94
2017-11-19T03:33:51.563Z,91.94
2017-11-19T03:34:17.705Z,91.66
2017-11-19T03:34:43.829Z,91.8
2017-11-19T03:35:09.947Z,91.42
2017-11-19T03:35:36.069Z,91.52
2017-11-19T03:36:02.219Z,91.52
2017-11-19T03:36:28.332Z,91.56
2017-11-19T03:36:54.501Z,91.56
2017-11-19T03:37:20.599Z,91.56
2017-11-19T03:37:46.818Z,91.19
2017-11-19T03:38:12.938Z,91.47
2017-11-19T03:38:39.070Z,91.56
2017-11-19T03:39:05.245Z,91.94
2017-11-19T03:39:31.973Z,91.75
2017-11-19T03:39:58.489Z,92.23
2017-11-19T03:40:24.878Z,92.04
2017-11-19T03:40:50.960Z,92.33
2017-11-19T03:41:17.087Z,91.85
2017-11-19T03:41:43.203Z,92.14
2017-11-19T03:42:09.353Z,92.14
2017-11-19T03:42:35.482Z,92.28
2017-11-19T03:43:01.698Z,92.04
2017-11-19T03:43:27.777Z,92.14
2017-11-19T03:43:53.901Z,92.23
2017-11-19T03:44:20.032Z,92.14
2017-11-19T03:44:46.178Z,92.04
2017-11-19T03:45:12.322Z,92.71
2017-11-19T03:45:38.476Z,92.42
2017-11-19T03:46:04.565Z,93.08
2017-11-19T03:46:30.697Z,92.9
2017-11-19T03:46:56.834Z,93.08
2017-11-19T03:47:22.959Z,92.47
2017-11-19T03:47:49.083Z,92.42
2017-11-19T03:48:15.200Z,92.04
2017-11-19T03:48:41.322Z,92.23
2017-11-19T03:49:07.441Z,92.33
2017-11-19T03:49:33.635Z,92.14
2017-11-19T03:49:59.740Z,92.33
2017-11-19T03:50:25.899Z,92.42
2017-11-19T03:50:52.040Z,92.52
2017-11-19T03:51:18.178Z,92.52
2017-11-19T03:51:44.326Z,92.18
2017-11-19T03:52:11.118Z,92.33
2017-11-19T03:52:37.244Z,91.85
2017-11-19T03:53:03.366Z,92.71
2017-11-19T03:53:29.481Z,92.18
2017-11-19T03:53:55.607Z,92.56
2017-11-19T03:54:21.820Z,92.56
2017-11-19T03:54:47.939Z,92.47
2017-11-19T03:55:14.069Z,92.66
2017-11-19T03:55:40.186Z,92.47
2017-11-19T03:56:06.312Z,92.18
2017-11-19T03:56:32.430Z,91.8
2017-11-19T03:56:58.556Z,91.52
2017-11-19T03:57:24.703Z,91.99
2017-11-19T03:57:50.808Z,91.61
2017-11-19T03:58:16.921Z,91.99
2017-11-19T03:58:43.045Z,91.52
2017-11-19T03:59:09.171Z,91.71
2017-11-19T03:59:35.340Z,92.28
2017-11-19T04:00:01.494Z,92.09
2017-11-19T04:00:27.784Z,92.09
2017-11-19T04:00:53.910Z,92.28
2017-11-19T04:01:20.035Z,92.18
2017-11-19T04:01:46.159Z,91.99
2017-11-19T04:02:12.282Z,92.09
2017-11-19T04:02:38.405Z,91.61
2017-11-19T04:03:04.518Z,91.8
2017-11-19T04:03:30.668Z,91.71
2017-11-19T04:03:56.815Z,91.24
2017-11-19T04:04:22.938Z,91.71
2017-11-19T04:04:49.106Z,91.71
2017-11-19T04:05:15.195Z,91.61
2017-11-19T04:05:41.321Z,91.61
2017-11-19T04:06:07.438Z,91.61
2017-11-19T04:06:33.563Z,91.89
2017-11-19T04:06:59.705Z,91.42
2017-11-19T04:07:25.833Z,91.71
2017-11-19T04:07:51.965Z,91.61
2017-11-19T04:08:18.073Z,91.99
2017-11-19T04:08:44.202Z,91.8
2017-11-19T04:09:10.318Z,92.09
2017-11-19T04:09:36.435Z,92.09
2017-11-19T04:10:02.562Z,92.28
2017-11-19T04:10:28.681Z,91.52
2017-11-19T04:10:54.817Z,91.89
2017-11-19T04:11:20.932Z,91.71
2017-11-19T04:11:47.049Z,91.8
2017-11-19T04:12:13.165Z,91.61
2017-11-19T04:12:39.286Z,91.61
2017-11-19T04:13:05.429Z,91.71
2017-11-19T04:13:31.559Z,91.42
2017-11-19T04:13:57.677Z,91.42
2017-11-19T04:14:23.796Z,91.71
2017-11-19T04:14:49.916Z,91.61
2017-11-19T04:15:16.042Z,91.42
2017-11-19T04:15:42.161Z,91.8
2017-11-19T04:16:08.280Z,92.37
2017-11-19T04:16:34.412Z,92.09
2017-11-19T04:17:00.531Z,92.09
2017-11-19T04:17:26.711Z,92.18
2017-11-19T04:17:52.795Z,91.71
2017-11-19T04:18:18.921Z,91.24
2017-11-19T04:18:45.098Z,91.52
2017-11-19T04:19:11.195Z,91.8
2017-11-19T04:19:37.331Z,91.61
2017-11-19T04:20:03.446Z,91.71
2017-11-19T04:20:29.574Z,92.28
2017-11-19T04:20:55.691Z,91.71
2017-11-19T04:21:21.816Z,91.52
2017-11-19T04:21:47.960Z,91.89
2017-11-19T04:22:14.078Z,91.71
2017-11-19T04:22:40.204Z,91.42
2017-11-19T04:23:06.320Z,91.8
2017-11-19T04:23:32.441Z,91.71
2017-11-19T04:23:58.568Z,91.33
2017-11-19T04:24:24.707Z,91.14
2017-11-19T04:24:50.834Z,91.24
2017-11-19T04:25:16.961Z,91.14
2017-11-19T04:25:43.083Z,91.14
2017-11-19T04:26:09.205Z,91.71
2017-11-19T04:26:35.325Z,91.71
2017-11-19T04:27:01.449Z,91.52
2017-11-19T04:27:27.568Z,91.61
2017-11-19T04:27:53.690Z,91.14
2017-11-19T04:28:19.808Z,91.14
2017-11-19T04:28:45.941Z,91.61
2017-11-19T04:29:12.118Z,91.71
2017-11-19T04:29:38.242Z,91.85
2017-11-19T04:30:04.362Z,91.99
2017-11-19T04:30:30.498Z,92.09
2017-11-19T04:30:56.627Z,91.14
2017-11-19T04:31:22.771Z,91.33
2017-11-19T04:31:48.890Z,91.24
2017-11-19T04:32:15.027Z,91.33
2017-11-19T04:32:41.148Z,91.24
2017-11-19T04:33:07.269Z,91.24
2017-11-19T04:33:33.395Z,91.14
2017-11-19T04:33:59.518Z,91.42
2017-11-19T04:34:25.635Z,91.04
2017-11-19T04:34:51.751Z,91.14
2017-11-19T04:35:17.880Z,91
2017-11-19T04:35:43.997Z,91.19
2017-11-19T04:36:10.120Z,91.09
2017-11-19T04:36:36.240Z,91.04
2017-11-19T04:37:02.366Z,91.24
2017-11-19T04:37:28.491Z,91.19
2017-11-19T04:37:54.612Z,91
2017-11-19T04:38:20.737Z,91.99
2017-11-19T04:38:46.850Z,91.8
2017-11-19T04:39:12.972Z,91.61
2017-11-19T04:39:39.094Z,91.61
2017-11-19T04:40:05.216Z,91.42
2017-11-19T04:40:31.339Z,91.8
2017-11-19T04:40:57.459Z,91.52
2017-11-19T04:41:23.586Z,91.42
2017-11-19T04:41:49.709Z,91.71
2017-11-19T04:42:15.826Z,91.14
2017-11-19T04:42:41.948Z,91.14
2017-11-19T04:43:08.063Z,91.33
2017-11-19T04:43:34.189Z,91.14
2017-11-19T04:44:00.316Z,91.24
2017-11-19T04:44:26.439Z,90.66
2017-11-19T04:44:52.577Z,90.76
2017-11-19T04:45:18.694Z,90.95
2017-11-19T04:45:44.823Z,91.24
2017-11-19T04:46:10.940Z,91.14
2017-11-19T04:46:37.073Z,90.85
2017-11-19T04:47:03.191Z,91.04
2017-11-19T04:47:29.307Z,90.95
2017-11-19T04:47:55.454Z,91.04
2017-11-19T04:48:21.560Z,90.85
2017-11-19T04:48:47.671Z,90.95
2017-11-19T04:49:13.816Z,90.85
2017-11-19T04:49:39.941Z,91.04
2017-11-19T04:50:06.056Z,91.04
2017-11-19T04:50:32.182Z,91.14
2017-11-19T04:50:58.299Z,91.14
2017-11-19T04:51:24.425Z,91.24
2017-11-19T04:51:50.541Z,91.14
2017-11-19T04:52:16.681Z,90.76
2017-11-19T04:52:42.808Z,90.85
2017-11-19T04:53:08.922Z,90.76
2017-11-19T04:53:35.077Z,91.14
2017-11-19T04:54:01.178Z,91.24
2017-11-19T04:54:27.290Z,90.85
2017-11-19T04:54:53.406Z,91.42
2017-11-19T04:55:19.550Z,90.95
2017-11-19T04:55:45.674Z,91.33
2017-11-19T04:56:11.795Z,91.14
2017-11-19T04:56:37.910Z,91.04
2017-11-19T04:57:04.050Z,90.85
2017-11-19T04:57:30.174Z,90.95
2017-11-19T04:57:56.314Z,91.24
2017-11-19T04:58:22.430Z,91.14
2017-11-19T04:58:48.571Z,90.95
2017-11-19T04:59:14.690Z,91.14
2017-11-19T04:59:40.816Z,91.14
2017-11-19T05:00:06.938Z,91.24
2017-11-19T05:00:33.061Z,90.85
2017-11-19T05:00:59.195Z,90.95
2017-11-19T05:01:25.306Z,90.85
2017-11-19T05:01:51.430Z,91.33
2017-11-19T05:02:17.558Z,91.33
2017-11-19T05:02:43.680Z,91.24
2017-11-19T05:03:09.836Z,91.14
2017-11-19T05:03:35.952Z,91.04
2017-11-19T05:04:02.074Z,90.76
2017-11-19T05:04:28.191Z,91.33
2017-11-19T05:04:54.319Z,91.14
2017-11-19T05:05:20.444Z,91.24
2017-11-19T05:05:46.566Z,91.24
2017-11-19T05:06:12.680Z,92.09
2017-11-19T05:06:38.812Z,91.24
2017-11-19T05:07:04.936Z,91.71
2017-11-19T05:07:31.054Z,91.71
2017-11-19T05:07:57.221Z,91.14
2017-11-19T05:08:23.341Z,91.04
2017-11-19T05:08:49.455Z,91.14
2017-11-19T05:09:15.584Z,90.85
2017-11-19T05:09:41.709Z,91.04
2017-11-19T05:10:07.847Z,91.04
2017-11-19T05:10:33.965Z,90.95
2017-11-19T05:11:00.089Z,90.76
2017-11-19T05:11:26.210Z,90.95
2017-11-19T05:11:52.334Z,90.47
2017-11-19T05:12:18.453Z,90.57
2017-11-19T05:12:44.579Z,90.28
2017-11-19T05:13:10.694Z,90.66
2017-11-19T05:13:36.840Z,90.57
2017-11-19T05:14:02.957Z,90.57
2017-11-19T05:14:29.084Z,90.38
2017-11-19T05:14:55.216Z,90.66
2017-11-19T05:15:21.326Z,90.38
2017-11-19T05:15:47.457Z,90.47
2017-11-19T05:16:13.571Z,90.85
2017-11-19T05:16:39.694Z,90.66
2017-11-19T05:17:05.820Z,90.28
2017-11-19T05:17:31.939Z,90.38
2017-11-19T05:17:58.065Z,90.28
2017-11-19T05:18:24.187Z,90.85
2017-11-19T05:18:50.309Z,90.76
2017-11-19T05:19:16.434Z,91.04
2017-11-19T05:19:42.580Z,90.28
2017-11-19T05:20:08.704Z,90.38
2017-11-19T05:20:34.822Z,90.28
2017-11-19T05:21:00.949Z,90.95
2017-11-19T05:21:27.067Z,91.04
2017-11-19T05:21:53.191Z,91.04
2017-11-19T05:22:19.321Z,91.14
2017-11-19T05:22:45.431Z,90.95
2017-11-19T05:23:11.561Z,91.04
2017-11-19T05:23:37.675Z,91.04
2017-11-19T05:24:03.789Z,90.66
2017-11-19T05:24:29.915Z,91.04
2017-11-19T05:24:56.023Z,90.85
2017-11-19T05:25:22.151Z,91.04
2017-11-19T05:25:48.270Z,90.95
2017-11-19T05:26:14.394Z,90.57
2017-11-19T05:26:40.521Z,90.66
2017-11-19T05:27:06.658Z,90.57
2017-11-19T05:27:32.784Z,90.66
2017-11-19T05:27:58.920Z,90.66
2017-11-19T05:28:25.023Z,90.47
2017-11-19T05:28:51.137Z,90.66
2017-11-19T05:29:17.264Z,89.9
2017-11-19T05:29:43.412Z,89.9
2017-11-19T05:30:09.547Z,90
2017-11-19T05:30:35.666Z,89.9
2017-11-19T05:31:01.793Z,89.9
2017-11-19T05:31:27.907Z,90.85
2017-11-19T05:31:54.033Z,90.76
2017-11-19T05:32:20.156Z,90.66
2017-11-19T05:32:46.276Z,90.66
2017-11-19T05:33:12.391Z,91.24
2017-11-19T05:33:38.519Z,91.14
2017-11-19T05:34:04.670Z,91.99
2017-11-19T05:34:30.785Z,91.24
2017-11-19T05:34:56.936Z,91.71
2017-11-19T05:35:23.055Z,91.42
2017-11-19T05:35:49.175Z,91.42
2017-11-19T05:36:15.305Z,91.71
2017-11-19T05:36:41.420Z,91.8
2017-11-19T05:37:07.548Z,91.8
2017-11-19T05:37:33.664Z,91.8